Terminal Aerodrome Forecast
Issued by NWS

Home | Current Version | Previous Version | Text Only | Print | Product List | Glossary On
Versions: 1 2 3 4 5 6 7 8 9 10 11 12 13 14 15 16 17 18 19 20
000
FTAK31 PAFA 251132
TAFASC
TAF
PASC 251132Z 2512/2612 14004KT P6SM -SN OVC029
     FM260100 13008KT P6SM -SHSN SCT025 BKN050=

USA.gov is the U.S. government's official web portal to all federal, state and local government web resources and services.